createdAt,value
2017-10-23T00:02:00.413Z,10.40
2017-10-23T00:04:29.859Z,10.25
2017-10-23T00:06:58.217Z,10.28
2017-10-23T00:09:27.337Z,10.20
2017-10-23T00:11:55.695Z,10.10
2017-10-23T00:14:24.833Z,10.10
2017-10-23T00:16:53.198Z,10.07
2017-10-23T00:19:21.552Z,9.96
2017-10-23T00:21:49.920Z,10.03
2017-10-23T00:24:18.281Z,9.98
2017-10-23T00:26:46.650Z,10.13
2017-10-23T00:29:15.013Z,10.00
2017-10-23T00:31:43.380Z,9.95
2017-10-23T00:34:11.732Z,10.04
2017-10-23T00:36:40.105Z,10.10
2017-10-23T00:39:08.453Z,9.84
2017-10-23T00:41:36.810Z,9.85
2017-10-23T00:44:05.173Z,9.88
2017-10-23T00:46:33.541Z,9.97
2017-10-23T00:49:01.897Z,9.99
2017-10-23T00:51:30.270Z,10.08
2017-10-23T00:53:58.634Z,9.81
2017-10-23T00:56:27.009Z,10.09
2017-10-23T00:58:55.385Z,9.97
2017-10-23T01:01:23.741Z,10.07
2017-10-23T01:03:52.097Z,10.11
2017-10-23T01:06:20.446Z,10.05
2017-10-23T01:08:48.801Z,10.19
2017-10-23T01:11:17.157Z,10.17
2017-10-23T01:13:45.516Z,10.03
2017-10-23T01:16:13.880Z,10.13
2017-10-23T01:18:42.236Z,10.08
2017-10-23T01:21:10.585Z,9.91
2017-10-23T01:23:39.356Z,9.88
2017-10-23T01:26:07.720Z,9.80
2017-10-23T01:28:36.137Z,9.85
2017-10-23T01:31:05.267Z,9.78
2017-10-23T01:33:33.631Z,9.82
2017-10-23T01:36:02.775Z,9.90
2017-10-23T01:38:31.135Z,9.90
2017-10-23T01:40:59.493Z,10.03
2017-10-23T01:43:27.849Z,9.97
2017-10-23T01:45:56.201Z,10.02
2017-10-23T01:48:24.553Z,10.09
2017-10-23T01:50:52.918Z,10.03
2017-10-23T01:53:21.269Z,9.95
2017-10-23T01:55:50.399Z,10.04
2017-10-23T01:58:18.745Z,9.95
2017-10-23T02:00:47.094Z,9.91
2017-10-23T02:03:15.460Z,9.89
2017-10-23T02:05:43.815Z,9.93
2017-10-23T02:08:12.165Z,9.80
2017-10-23T02:10:40.525Z,9.67
2017-10-23T02:13:09.642Z,9.68
2017-10-23T02:15:37.994Z,9.64
2017-10-23T02:18:07.108Z,9.68
2017-10-23T02:20:35.461Z,9.81
2017-10-23T02:23:03.817Z,9.81
2017-10-23T02:25:32.168Z,9.74
2017-10-23T02:28:00.524Z,9.65
2017-10-23T02:30:28.885Z,9.66
2017-10-23T02:32:57.269Z,9.57
2017-10-23T02:35:25.622Z,9.62
2017-10-23T02:37:53.988Z,9.70
2017-10-23T02:40:22.348Z,9.71
2017-10-23T02:42:50.707Z,9.65
2017-10-23T02:45:19.060Z,9.77
2017-10-23T02:47:48.182Z,9.57
2017-10-23T02:50:16.721Z,9.63
2017-10-23T02:52:45.848Z,9.69
2017-10-23T02:55:14.208Z,9.75
2017-10-23T02:57:42.565Z,9.49
2017-10-23T03:00:10.913Z,9.52
2017-10-23T03:02:39.262Z,9.61
2017-10-23T03:05:07.611Z,9.60
2017-10-23T03:07:36.728Z,9.74
2017-10-23T03:10:05.090Z,9.78
2017-10-23T03:12:34.261Z,9.92
2017-10-23T03:15:02.628Z,9.91
2017-10-23T03:17:30.988Z,9.86
2017-10-23T03:20:00.838Z,10.06
2017-10-23T03:22:29.194Z,10.03
2017-10-23T03:24:57.555Z,9.92
2017-10-23T03:27:25.909Z,9.98
2017-10-23T03:29:54.274Z,10.08
2017-10-23T03:32:22.624Z,9.98
2017-10-23T03:34:50.983Z,10.15
2017-10-23T03:37:19.345Z,10.21
2017-10-23T03:39:47.702Z,10.14
2017-10-23T03:42:16.069Z,10.19
2017-10-23T03:44:44.445Z,10.17
2017-10-23T03:47:13.573Z,10.19
2017-10-23T03:49:41.949Z,10.22
2017-10-23T03:52:10.326Z,10.00
2017-10-23T03:54:38.681Z,10.23
2017-10-23T03:57:07.047Z,10.12
2017-10-23T03:59:35.438Z,10.14
2017-10-23T04:02:03.797Z,10.30
2017-10-23T04:04:32.931Z,10.05
2017-10-23T04:07:01.320Z,10.18
2017-10-23T04:09:30.488Z,10.21
2017-10-23T04:11:58.854Z,10.21
2017-10-23T04:14:27.221Z,10.06
2017-10-23T04:16:55.578Z,9.91
2017-10-23T04:19:23.929Z,9.93
2017-10-23T04:21:52.291Z,9.96
2017-10-23T04:24:20.649Z,10.00
2017-10-23T04:26:49.771Z,9.96
2017-10-23T04:29:18.123Z,9.98
2017-10-23T04:31:47.254Z,9.56
2017-10-23T04:34:15.601Z,9.66
2017-10-23T04:36:43.956Z,9.74
2017-10-23T04:39:13.088Z,9.71
2017-10-23T04:41:41.436Z,9.64
2017-10-23T04:44:09.800Z,9.57
2017-10-23T04:46:38.152Z,9.57
2017-10-23T04:49:06.509Z,9.61
2017-10-23T04:51:34.925Z,9.54
2017-10-23T04:54:03.282Z,9.43
2017-10-23T04:56:31.628Z,9.62
2017-10-23T04:58:59.997Z,9.50
2017-10-23T05:01:28.357Z,9.57
2017-10-23T05:03:56.932Z,9.53
2017-10-23T05:06:25.296Z,9.63
2017-10-23T05:08:53.658Z,9.63
2017-10-23T05:11:22.022Z,9.60
2017-10-23T05:13:50.374Z,9.62
2017-10-23T05:16:18.724Z,9.58
2017-10-23T05:18:47.096Z,9.50
2017-10-23T05:21:15.586Z,9.40
2017-10-23T05:23:43.941Z,9.48
2017-10-23T05:26:12.296Z,9.43
2017-10-23T05:28:40.683Z,9.55
2017-10-23T05:31:09.045Z,9.38
2017-10-23T05:33:37.396Z,9.44
2017-10-23T05:36:06.505Z,9.53
2017-10-23T05:38:34.852Z,9.54
2017-10-23T05:41:03.215Z,9.60
2017-10-23T05:43:31.601Z,9.65
2017-10-23T05:45:59.945Z,9.63
2017-10-23T05:48:28.295Z,9.47
2017-10-23T05:50:56.661Z,9.47
2017-10-23T05:53:25.788Z,9.66
2017-10-23T05:55:54.145Z,9.65
2017-10-23T05:58:22.508Z,9.65
2017-10-23T06:00:50.866Z,9.66
2017-10-23T06:03:19.215Z,9.66
2017-10-23T06:05:47.581Z,9.77
2017-10-23T06:08:15.944Z,9.95
2017-10-23T06:10:44.301Z,10.03
2017-10-23T06:13:13.429Z,10.02
2017-10-23T06:15:41.812Z,10.03
2017-10-23T06:18:10.182Z,10.14
2017-10-23T06:20:38.572Z,10.04
2017-10-23T06:23:06.942Z,10.08
2017-10-23T06:25:35.293Z,10.02
2017-10-23T06:28:03.664Z,10.12
2017-10-23T06:30:32.019Z,10.27
2017-10-23T06:33:00.406Z,10.35
2017-10-23T06:35:28.785Z,10.28
2017-10-23T06:37:57.490Z,10.39
2017-10-23T06:40:25.853Z,10.48
2017-10-23T06:42:54.212Z,10.47
2017-10-23T06:45:22.586Z,10.42
2017-10-23T06:47:50.954Z,10.36
2017-10-23T06:50:20.510Z,10.42
2017-10-23T06:52:48.885Z,10.41
2017-10-23T06:55:18.018Z,10.39
2017-10-23T06:57:46.392Z,10.58
2017-10-23T07:00:14.777Z,10.42
2017-10-23T07:02:43.160Z,10.48
2017-10-23T07:05:11.537Z,10.48
2017-10-23T07:07:39.901Z,10.50
2017-10-23T07:10:08.270Z,10.72
2017-10-23T07:12:36.641Z,10.69
2017-10-23T07:15:04.997Z,10.66
2017-10-23T07:17:33.373Z,10.78
2017-10-23T07:20:01.749Z,10.86
2017-10-23T07:22:30.116Z,10.97
2017-10-23T07:24:58.490Z,11.03
2017-10-23T07:27:26.850Z,10.93
2017-10-23T07:29:55.219Z,11.01
2017-10-23T07:32:24.265Z,11.01
2017-10-23T07:34:52.654Z,11.25
2017-10-23T07:37:21.782Z,11.25
2017-10-23T07:39:50.158Z,11.21
2017-10-23T07:42:18.519Z,11.22
2017-10-23T07:44:46.882Z,11.32
2017-10-23T07:47:15.296Z,11.49
2017-10-23T07:49:43.729Z,11.50
2017-10-23T07:52:12.857Z,11.57
2017-10-23T07:54:41.220Z,11.63
2017-10-23T07:57:09.598Z,11.55
2017-10-23T07:59:37.966Z,11.35
2017-10-23T08:02:06.333Z,11.52
2017-10-23T08:04:34.719Z,11.54
2017-10-23T08:07:03.851Z,11.43
2017-10-23T08:09:32.214Z,11.55
2017-10-23T08:12:00.897Z,11.35
2017-10-23T08:14:29.257Z,11.21
2017-10-23T08:16:57.622Z,11.13
2017-10-23T08:19:26.786Z,11.05
2017-10-23T08:21:55.164Z,10.95
2017-10-23T08:24:23.526Z,11.05
2017-10-23T08:26:51.886Z,10.94
2017-10-23T08:29:20.252Z,11.13
2017-10-23T08:31:49.385Z,11.11
2017-10-23T08:34:17.760Z,11.05
2017-10-23T08:36:47.029Z,11.00
2017-10-23T08:39:15.401Z,11.04
2017-10-23T08:41:43.762Z,11.12
2017-10-23T08:44:12.137Z,11.10
2017-10-23T08:46:41.881Z,11.16
2017-10-23T08:49:10.245Z,11.02
2017-10-23T08:51:38.609Z,10.99
2017-10-23T08:54:06.978Z,11.07
2017-10-23T08:56:35.354Z,11.06
2017-10-23T08:59:03.730Z,11.22
2017-10-23T09:01:32.108Z,11.35
2017-10-23T09:04:01.277Z,11.32
2017-10-23T09:06:29.634Z,11.44
2017-10-23T09:08:57.989Z,11.49
2017-10-23T09:11:27.818Z,11.66
2017-10-23T09:13:56.195Z,11.66
2017-10-23T09:16:24.566Z,11.93
2017-10-23T09:18:52.941Z,12.08
2017-10-23T09:21:21.313Z,12.07
2017-10-23T09:23:50.448Z,11.87
2017-10-23T09:26:18.805Z,11.86
2017-10-23T09:28:47.156Z,11.84
2017-10-23T09:31:16.290Z,11.85
2017-10-23T09:33:44.651Z,11.65
2017-10-23T09:36:13.019Z,11.36
2017-10-23T09:38:41.390Z,11.44
2017-10-23T09:41:09.765Z,11.36
2017-10-23T09:43:38.915Z,11.41
2017-10-23T09:46:07.302Z,11.34
2017-10-23T09:48:35.668Z,11.31
2017-10-23T09:51:04.047Z,11.05
2017-10-23T09:53:32.404Z,10.93
2017-10-23T09:56:00.773Z,11.06
2017-10-23T09:58:29.149Z,11.21
2017-10-23T10:00:57.606Z,11.24
2017-10-23T10:03:25.980Z,11.23
2017-10-23T10:05:54.340Z,11.36
2017-10-23T10:08:23.809Z,11.43
2017-10-23T10:10:52.169Z,11.52
2017-10-23T10:13:20.524Z,11.52
2017-10-23T10:15:48.886Z,11.44
2017-10-23T10:18:18.298Z,11.52
2017-10-23T10:20:46.683Z,11.63
2017-10-23T10:23:15.068Z,11.57
2017-10-23T10:25:43.436Z,11.63
2017-10-23T10:28:11.806Z,11.55
2017-10-23T10:30:40.165Z,11.58
2017-10-23T10:33:08.532Z,11.56
2017-10-23T10:35:36.903Z,11.54
2017-10-23T10:38:05.265Z,11.45
2017-10-23T10:40:33.632Z,11.41
2017-10-23T10:43:02.009Z,11.60
2017-10-23T10:45:31.149Z,11.62
2017-10-23T10:47:59.527Z,11.54
2017-10-23T10:50:28.868Z,11.55
2017-10-23T10:52:58.023Z,11.74
2017-10-23T10:55:26.404Z,11.80
2017-10-23T10:57:54.989Z,11.71
2017-10-23T11:00:23.365Z,11.75
2017-10-23T11:02:51.750Z,11.82
2017-10-23T11:05:20.145Z,11.87
2017-10-23T11:07:48.526Z,11.89
2017-10-23T11:10:16.901Z,11.85
2017-10-23T11:12:45.296Z,12.06
2017-10-23T11:15:13.671Z,12.07
2017-10-23T11:17:42.983Z,12.14
2017-10-23T11:20:11.335Z,12.28
2017-10-23T11:22:39.709Z,12.39
2017-10-23T11:25:08.064Z,12.33
2017-10-23T11:27:36.433Z,12.47
2017-10-23T11:30:04.798Z,12.40
2017-10-23T11:32:33.252Z,12.53
2017-10-23T11:35:02.394Z,12.52
2017-10-23T11:37:30.767Z,12.71
2017-10-23T11:39:59.889Z,12.72
2017-10-23T11:42:28.258Z,12.61
2017-10-23T11:44:56.652Z,12.84
2017-10-23T11:47:25.026Z,12.90
2017-10-23T11:49:53.753Z,12.96
2017-10-23T11:52:22.887Z,12.92
2017-10-23T11:54:51.253Z,13.15
2017-10-23T11:57:19.613Z,13.17
2017-10-23T11:59:47.989Z,13.13
2017-10-23T12:02:17.125Z,13.20
2017-10-23T12:04:45.519Z,12.81
2017-10-23T12:07:13.892Z,12.65
2017-10-23T12:09:42.275Z,12.32
2017-10-23T12:12:10.656Z,12.30
2017-10-23T12:14:39.220Z,12.08
2017-10-23T12:17:07.596Z,11.93
2017-10-23T12:19:35.969Z,12.15
2017-10-23T12:22:04.360Z,12.21
2017-10-23T12:24:32.733Z,12.15
2017-10-23T12:27:01.093Z,12.13
2017-10-23T12:29:29.453Z,12.08
2017-10-23T12:31:58.589Z,12.24
2017-10-23T12:34:26.973Z,12.31
2017-10-23T12:36:55.341Z,12.04
2017-10-23T12:39:23.716Z,12.01
2017-10-23T12:41:52.076Z,12.05
2017-10-23T12:44:20.450Z,12.07
2017-10-23T12:46:48.820Z,12.19
2017-10-23T12:49:17.197Z,11.85
2017-10-23T12:51:46.329Z,12.21
2017-10-23T12:54:14.692Z,12.46
2017-10-23T12:56:43.083Z,12.47
2017-10-23T12:59:11.445Z,12.47
2017-10-23T13:01:39.826Z,12.52
2017-10-23T13:04:08.186Z,12.43
2017-10-23T13:06:36.558Z,12.48
2017-10-23T13:09:04.943Z,12.42
2017-10-23T13:11:33.318Z,12.39
2017-10-23T13:14:01.685Z,12.17
2017-10-23T13:16:30.045Z,12.08
2017-10-23T13:18:58.420Z,11.95
2017-10-23T13:21:26.798Z,12.00
2017-10-23T13:23:55.167Z,12.10
2017-10-23T13:26:23.529Z,12.03
2017-10-23T13:28:51.904Z,12.23
2017-10-23T13:31:20.274Z,12.33
2017-10-23T13:33:48.629Z,12.27
2017-10-23T13:36:17.781Z,12.29
2017-10-23T13:38:46.156Z,12.14
2017-10-23T13:41:14.541Z,12.30
2017-10-23T13:43:42.901Z,12.50
2017-10-23T13:46:11.270Z,12.45
2017-10-23T13:48:39.652Z,12.31
2017-10-23T13:51:08.030Z,12.32
2017-10-23T13:53:36.404Z,12.30
2017-10-23T13:56:04.774Z,12.33
2017-10-23T13:58:33.141Z,12.25
2017-10-23T14:01:01.510Z,12.33
2017-10-23T14:03:29.878Z,12.49
2017-10-23T14:05:59.010Z,12.40
2017-10-23T14:08:28.109Z,12.44
2017-10-23T14:10:56.479Z,12.40
2017-10-23T14:13:24.862Z,12.52
2017-10-23T14:15:53.225Z,12.61
2017-10-23T14:18:21.601Z,12.47
2017-10-23T14:20:50.009Z,12.42
2017-10-23T14:23:18.371Z,12.45
2017-10-23T14:25:46.748Z,12.42
2017-10-23T14:28:15.204Z,12.43
2017-10-23T14:30:44.054Z,12.45
2017-10-23T14:33:12.513Z,12.42
2017-10-23T14:35:40.969Z,12.47
2017-10-23T14:38:09.381Z,12.54
2017-10-23T14:40:37.754Z,12.68
2017-10-23T14:43:06.131Z,12.77
2017-10-23T14:45:34.508Z,12.69
2017-10-23T14:48:02.888Z,12.63
2017-10-23T14:50:31.272Z,12.47
2017-10-23T14:52:59.665Z,12.50
2017-10-23T14:55:28.030Z,12.47
2017-10-23T14:57:56.398Z,12.56
2017-10-23T15:00:24.773Z,12.58
2017-10-23T15:02:53.134Z,12.57
2017-10-23T15:05:22.112Z,12.74
2017-10-23T15:07:50.491Z,12.82
2017-10-23T15:10:18.868Z,12.85
2017-10-23T15:12:47.940Z,12.91
2017-10-23T15:15:17.098Z,12.93
2017-10-23T15:17:45.499Z,12.63
2017-10-23T15:20:13.856Z,12.69
2017-10-23T15:22:42.296Z,12.40
2017-10-23T15:25:10.672Z,12.55
2017-10-23T15:27:39.035Z,12.52
2017-10-23T15:30:07.397Z,12.64
2017-10-23T15:32:35.787Z,12.56
2017-10-23T15:35:04.152Z,12.14
2017-10-23T15:37:32.562Z,12.26
2017-10-23T15:40:00.924Z,12.38
2017-10-23T15:42:29.289Z,12.36
2017-10-23T15:44:57.675Z,12.13
2017-10-23T15:47:26.052Z,12.26
2017-10-23T15:49:54.421Z,12.40
2017-10-23T15:52:22.781Z,12.53
2017-10-23T15:54:51.152Z,12.29
2017-10-23T15:57:19.529Z,12.37
2017-10-23T15:59:47.926Z,12.18
2017-10-23T16:02:16.284Z,12.09
2017-10-23T16:04:44.650Z,12.19
2017-10-23T16:07:13.013Z,12.31
2017-10-23T16:09:41.376Z,12.27
2017-10-23T16:12:10.504Z,12.24
2017-10-23T16:14:38.860Z,12.46
2017-10-23T16:17:07.240Z,12.61
2017-10-23T16:19:35.600Z,12.66
2017-10-23T16:22:03.960Z,12.60
2017-10-23T16:24:32.329Z,12.63
2017-10-23T16:27:00.701Z,12.59
2017-10-23T16:29:29.062Z,12.63
2017-10-23T16:31:57.421Z,12.56
2017-10-23T16:34:25.789Z,12.58
2017-10-23T16:36:54.149Z,12.57
2017-10-23T16:39:23.272Z,12.71
2017-10-23T16:41:51.638Z,12.83
2017-10-23T16:44:20.013Z,12.94
2017-10-23T16:46:48.556Z,12.72
2017-10-23T16:49:40.461Z,12.76
2017-10-23T16:52:08.842Z,12.90
2017-10-23T16:54:37.227Z,12.99
2017-10-23T16:57:05.628Z,12.91
2017-10-23T16:59:34.013Z,12.96
2017-10-23T17:02:02.391Z,12.96
2017-10-23T17:04:30.756Z,12.93
2017-10-23T17:06:59.132Z,12.98
2017-10-23T17:09:29.026Z,13.01
2017-10-23T17:11:58.149Z,13.03
2017-10-23T17:14:26.504Z,13.04
2017-10-23T17:16:54.876Z,13.03
2017-10-23T17:19:23.282Z,13.06
2017-10-23T17:21:51.649Z,12.87
2017-10-23T17:24:20.013Z,12.75
2017-10-23T17:26:48.389Z,13.03
2017-10-23T17:29:17.517Z,13.13
2017-10-23T17:31:45.882Z,13.11
2017-10-23T17:34:15.046Z,12.97
2017-10-23T17:36:43.451Z,13.08
2017-10-23T17:39:11.835Z,13.14
2017-10-23T17:41:40.210Z,13.13
2017-10-23T17:44:08.577Z,13.13
2017-10-23T17:46:36.953Z,13.13
2017-10-23T17:49:05.380Z,13.02
2017-10-23T17:51:34.533Z,13.11
2017-10-23T17:54:02.913Z,13.15
2017-10-23T17:56:31.279Z,13.16
2017-10-23T17:59:13.768Z,13.10
2017-10-23T18:01:53.991Z,12.97
2017-10-23T18:04:35.531Z,13.02
2017-10-23T18:07:17.421Z,13.04
2017-10-23T18:10:02.170Z,13.05
2017-10-23T18:12:33.630Z,12.93
2017-10-23T18:15:11.715Z,12.91
2017-10-23T18:17:50.011Z,12.96
2017-10-23T18:20:32.931Z,12.76
2017-10-23T18:23:01.301Z,12.81
2017-10-23T18:25:29.673Z,12.84
2017-10-23T18:27:58.050Z,12.85
2017-10-23T18:30:26.449Z,12.64
2017-10-23T18:32:54.821Z,12.53
2017-10-23T18:35:23.188Z,12.44
2017-10-23T18:37:51.560Z,12.45
2017-10-23T18:40:19.950Z,12.43
2017-10-23T18:42:48.329Z,12.39
2017-10-23T18:45:17.109Z,12.36
2017-10-23T18:47:45.468Z,12.14
2017-10-23T18:50:13.836Z,12.05
2017-10-23T18:52:42.207Z,12.05
2017-10-23T18:55:10.581Z,12.10
2017-10-23T18:57:38.944Z,12.10
2017-10-23T19:00:07.330Z,11.63
2017-10-23T19:02:35.702Z,11.95
2017-10-23T19:05:04.086Z,12.03
2017-10-23T19:07:32.458Z,12.07
2017-10-23T19:10:00.820Z,12.11
2017-10-23T19:12:29.185Z,12.16
2017-10-23T19:14:57.552Z,12.08
2017-10-23T19:17:25.921Z,12.13
2017-10-23T19:19:54.281Z,12.07
2017-10-23T19:22:22.656Z,12.17
2017-10-23T19:24:51.031Z,12.16
2017-10-23T19:27:19.413Z,12.12
2017-10-23T19:29:47.787Z,12.18
2017-10-23T19:32:16.174Z,12.25
2017-10-23T19:34:44.585Z,12.22
2017-10-23T19:37:12.959Z,12.28
2017-10-23T19:39:41.667Z,12.37
2017-10-23T19:45:10.280Z,12.44
2017-10-23T19:47:38.700Z,12.36
2017-10-23T19:50:07.126Z,12.37
2017-10-23T19:52:36.269Z,12.36
2017-10-23T19:55:07.565Z,12.38
2017-10-23T19:57:35.929Z,12.32
2017-10-23T20:00:04.292Z,12.42
2017-10-23T20:02:32.665Z,12.47
2017-10-23T20:05:01.033Z,12.50
2017-10-23T20:07:29.408Z,12.55
2017-10-23T20:09:57.785Z,12.63
2017-10-23T20:12:26.159Z,12.62
2017-10-23T20:14:55.326Z,12.57
2017-10-23T20:17:23.753Z,12.53
2017-10-23T20:19:52.122Z,12.56
2017-10-23T20:22:20.499Z,12.64
2017-10-23T20:24:48.880Z,12.60
2017-10-23T20:27:18.188Z,12.67
2017-10-23T20:29:46.892Z,12.61
2017-10-23T20:32:15.264Z,12.62
2017-10-23T20:34:43.625Z,12.61
2017-10-23T20:37:12.000Z,12.58
2017-10-23T20:39:40.365Z,11.91
2017-10-23T20:42:08.738Z,11.78
2017-10-23T20:44:37.133Z,11.83
2017-10-23T20:47:05.513Z,11.89
2017-10-23T20:49:33.895Z,11.84
2017-10-23T20:52:02.276Z,11.89
2017-10-23T20:54:30.673Z,11.84
2017-10-23T20:56:59.858Z,11.73
2017-10-23T20:59:28.229Z,11.78
2017-10-23T21:01:56.597Z,11.74
2017-10-23T21:04:24.978Z,11.62
2017-10-23T21:06:53.333Z,11.56
2017-10-23T21:09:22.396Z,11.49
2017-10-23T21:11:50.790Z,11.32
2017-10-23T21:14:19.158Z,11.27
2017-10-23T21:16:47.530Z,11.28
2017-10-23T21:19:15.911Z,10.64
2017-10-23T21:21:51.963Z,10.87
2017-10-23T21:24:20.333Z,10.91
2017-10-23T21:26:49.513Z,10.85
2017-10-23T21:29:19.074Z,10.90
2017-10-23T21:31:48.205Z,10.91
2017-10-23T21:34:16.591Z,10.57
2017-10-23T21:36:44.962Z,10.20
2017-10-23T21:39:13.334Z,10.42
2017-10-23T21:41:41.693Z,10.52
2017-10-23T21:44:13.022Z,10.63
2017-10-23T21:47:00.329Z,10.73
2017-10-23T21:49:28.694Z,10.77
2017-10-23T21:51:57.072Z,10.85
2017-10-23T21:54:25.443Z,10.91
2017-10-23T21:56:53.815Z,10.83
2017-10-23T21:59:22.187Z,10.87
2017-10-23T22:01:50.557Z,10.72
2017-10-23T22:04:18.948Z,10.70
2017-10-23T22:06:47.321Z,10.82
2017-10-23T22:09:15.696Z,10.89
2017-10-23T22:11:44.074Z,10.96
2017-10-23T22:14:12.472Z,10.92
2017-10-23T22:16:40.844Z,10.99
2017-10-23T22:19:09.217Z,10.92
2017-10-23T22:21:37.679Z,10.92
2017-10-23T22:24:06.059Z,10.59
2017-10-23T22:26:34.425Z,9.97
2017-10-23T22:29:03.153Z,10.20
2017-10-23T22:31:31.532Z,10.31
2017-10-23T22:33:59.911Z,10.39
2017-10-23T22:36:28.297Z,10.25
2017-10-23T22:38:56.687Z,10.20
2017-10-23T22:41:25.840Z,10.24
2017-10-23T22:43:54.212Z,10.28
2017-10-23T22:46:22.577Z,10.28
2017-10-23T22:48:50.955Z,10.11
2017-10-23T22:51:19.326Z,10.06
2017-10-23T22:53:47.684Z,10.05
2017-10-23T22:56:16.049Z,10.01
2017-10-23T22:58:44.408Z,9.44
2017-10-23T23:01:12.770Z,9.41
2017-10-23T23:03:41.157Z,9.39
2017-10-23T23:06:09.539Z,8.93
2017-10-23T23:08:37.911Z,9.14
2017-10-23T23:11:06.278Z,9.38
2017-10-23T23:13:34.653Z,9.50
2017-10-23T23:16:03.013Z,9.50
2017-10-23T23:18:31.387Z,9.59
2017-10-23T23:21:00.040Z,9.56
2017-10-23T23:23:28.401Z,9.64
2017-10-23T23:25:56.766Z,9.68
2017-10-23T23:28:25.144Z,9.59
2017-10-23T23:30:53.521Z,9.57
2017-10-23T23:33:21.894Z,9.51
2017-10-23T23:35:50.282Z,9.45
2017-10-23T23:38:18.651Z,9.49
2017-10-23T23:40:47.004Z,9.51
2017-10-23T23:43:15.372Z,9.65
2017-10-23T23:45:43.746Z,9.69
2017-10-23T23:48:12.109Z,9.84
2017-10-23T23:50:40.484Z,9.92
2017-10-23T23:53:08.919Z,9.86
2017-10-23T23:55:37.309Z,9.92
2017-10-23T23:58:05.682Z,9.85
